Observation data for Jayton on 05/14/2018      Previous  Date  Next       Current Mesonet Observations  Soil Data  Daily Summary Page  Observations in Plain Language
KJTS 140500Z 16008KT 27/15 A2991 RMK A01 T02700154  RH  051%=      5-min Rain = 0
KJTS 140505Z 15008KT 27/15 A2991 RMK A01 T02690153  RH  051%=      5-min Rain = 0
KJTS 140510Z 15009KT 27/15 A299 RMK A01 T02690153  RH  051%=      5-min Rain = 0
KJTS 140515Z 15008KT 27/15 A299 RMK A01 T02690153  RH  051%=      5-min Rain = 0
KJTS 140520Z 15008G13KT 27/15 A299 RMK A01 T02680153  RH  052%=      5-min Rain = 0
KJTS 140525Z 15008KT 27/15 A299 RMK A01 T02680153  RH  052%=      5-min Rain = 0
KJTS 140530Z 15008KT 27/15 A299 RMK A01 T02670153  RH  052%=      5-min Rain = 0
KJTS 140535Z 15007KT 27/15 A299 RMK A01 T02650153  RH  052%=      5-min Rain = 0
KJTS 140540Z 15007KT 27/15 A299 RMK A01 T02650152  RH  052%=      5-min Rain = 0
KJTS 140545Z 15008KT 26/15 A299 RMK A01 T02640152  RH  052%=      5-min Rain = 0
KJTS 140550Z 16008KT 26/15 A299 RMK A01 T02640152  RH  053%=      5-min Rain = 0
KJTS 140555Z 16008KT 26/15 A299 RMK A01 T02630152  RH  053%=      5-min Rain = 0
KJTS 140600Z 16008KT 26/15 A299 RMK A01 T02620152  RH  053%=      5-min Rain = 0
KJTS 140605Z 16008KT 26/15 A299 RMK A01 T02600152  RH  053%=      5-min Rain = 0
KJTS 140610Z 17007KT 26/15 A299 RMK A01 T02600152  RH  054%=      5-min Rain = 0
KJTS 140615Z 17008KT 26/15 A299 RMK A01 T02590152  RH  054%=      5-min Rain = 0
KJTS 140620Z 17008KT 26/15 A299 RMK A01 T02590151  RH  054%=      5-min Rain = 0
KJTS 140625Z 17008KT 26/15 A299 RMK A01 T02590151  RH  054%=      5-min Rain = 0
KJTS 140630Z 17008KT 26/15 A299 RMK A01 T02580151  RH  054%=      5-min Rain = 0
KJTS 140635Z 17008KT 26/15 A299 RMK A01 T02570151  RH  054%=      5-min Rain = 0
KJTS 140640Z 17007KT 26/15 A299 RMK A01 T02570151  RH  054%=      5-min Rain = 0
KJTS 140645Z 17008KT 26/15 A299 RMK A01 T02550150  RH  055%=      5-min Rain = 0
KJTS 140650Z 18008KT 25/15 A299 RMK A01 T02540150  RH  055%=      5-min Rain = 0
KJTS 140655Z 18008KT 25/15 A2989 RMK A01 T02520151  RH  056%=      5-min Rain = 0
KJTS 140700Z 18008KT 25/15 A2989 RMK A01 T02500151  RH  057%=      5-min Rain = 0
KJTS 140705Z 18006KT 25/15 A2989 RMK A01 T02490151  RH  057%=      5-min Rain = 0
KJTS 140710Z 17006KT 25/15 A2989 RMK A01 T02490151  RH  057%=      5-min Rain = 0
KJTS 140715Z 17006KT 25/15 A2989 RMK A01 T02480151  RH  057%=      5-min Rain = 0
KJTS 140720Z 18005KT 25/15 A2989 RMK A01 T02470151  RH  058%=      5-min Rain = 0
KJTS 140725Z 18005KT 25/15 A2989 RMK A01 T02460151  RH  058%=      5-min Rain = 0
KJTS 140730Z 18005KT 24/15 A2989 RMK A01 T02440151  RH  059%=      5-min Rain = 0
KJTS 140735Z 19005KT 24/15 A2989 RMK A01 T02420151  RH  059%=      5-min Rain = 0
KJTS 140740Z 18005KT 24/15 A2989 RMK A01 T02400151  RH  060%=      5-min Rain = 0
KJTS 140745Z 18004KT 24/15 A2989 RMK A01 T02380151  RH  061%=      5-min Rain = 0
KJTS 140750Z 18003KT 24/15 A2989 RMK A01 T02370151  RH  061%=      5-min Rain = 0
KJTS 140755Z 17002KT 24/15 A2989 RMK A01 T02360151  RH  062%=      5-min Rain = 0
KJTS 140800Z 17000KT 24/15 A299 RMK A01 T02350151  RH  062%=      5-min Rain = 0
KJTS 140805Z 17000KT 24/15 A299 RMK A01 T02350152  RH  062%=      5-min Rain = 0
KJTS 140810Z 17000KT 23/15 A299 RMK A01 T02340152  RH  062%=      5-min Rain = 0
KJTS 140815Z 17000KT 23/15 A299 RMK A01 T02340152  RH  062%=      5-min Rain = 0
KJTS 140820Z 17001KT 24/15 A299 RMK A01 T02350151  RH  062%=      5-min Rain = 0
KJTS 140825Z 17001KT 23/15 A299 RMK A01 T02300149  RH  063%=      5-min Rain = 0
KJTS 140830Z 17000KT 23/15 A299 RMK A01 T02260150  RH  065%=      5-min Rain = 0
KJTS 140835Z 07002KT 23/15 A299 RMK A01 T02280152  RH  065%=      5-min Rain = 0
KJTS 140840Z 03004KT 23/15 A299 RMK A01 T02310151  RH  064%=      5-min Rain = 0
KJTS 140845Z 05005KT 23/15 A2991 RMK A01 T02300150  RH  063%=      5-min Rain = 0
KJTS 140850Z 07004KT 23/15 A2991 RMK A01 T02250149  RH  065%=      5-min Rain = 0
KJTS 140855Z 09004KT 22/15 A2991 RMK A01 T02210149  RH  067%=      5-min Rain = 0
KJTS 140900Z 10004KT 22/15 A2991 RMK A01 T02190149  RH  067%=      5-min Rain = 0
KJTS 140905Z 10003KT 22/15 A2991 RMK A01 T02180149  RH  068%=      5-min Rain = 0
KJTS 140910Z 09004KT 22/15 A2991 RMK A01 T02200149  RH  067%=      5-min Rain = 0
KJTS 140915Z 09005KT 22/15 A2991 RMK A01 T02200149  RH  067%=      5-min Rain = 0
KJTS 140920Z 10006KT 22/15 A2991 RMK A01 T02190149  RH  068%=      5-min Rain = 0
KJTS 140925Z 13006KT 22/15 A2991 RMK A01 T02190150  RH  068%=      5-min Rain = 0
KJTS 140930Z 13006KT 23/15 A2991 RMK A01 T02250151  RH  066%=      5-min Rain = 0
KJTS 140935Z 13005KT 23/15 A2991 RMK A01 T02280151  RH  065%=      5-min Rain = 0
KJTS 140940Z 12005KT 23/15 A2991 RMK A01 T02270152  RH  065%=      5-min Rain = 0
KJTS 140945Z 11004KT 22/15 A2992 RMK A01 T02230152  RH  067%=      5-min Rain = 0
KJTS 140950Z 11003KT 22/15 A2992 RMK A01 T02220152  RH  067%=      5-min Rain = 0
KJTS 140955Z 12004KT 22/15 A2992 RMK A01 T02210152  RH  068%=      5-min Rain = 0
KJTS 141000Z 12005KT 22/15 A2992 RMK A01 T02200152  RH  068%=      5-min Rain = 0
KJTS 141005Z 12005KT 22/15 A2992 RMK A01 T02200152  RH  068%=      5-min Rain = 0
KJTS 141010Z 10005KT 22/15 A2993 RMK A01 T02160152  RH  070%=      5-min Rain = 0
KJTS 141015Z 09006KT 22/15 A2993 RMK A01 T02180153  RH  070%=      5-min Rain = 0
KJTS 141020Z 10006KT 22/15 A2993 RMK A01 T02190153  RH  069%=      5-min Rain = 0
KJTS 141025Z 11006KT 22/15 A2993 RMK A01 T02190153  RH  069%=      5-min Rain = 0
KJTS 141030Z 12006KT 22/15 A2993 RMK A01 T02190153  RH  069%=      5-min Rain = 0
KJTS 141035Z 12006KT 22/15 A2993 RMK A01 T02200153  RH  069%=      5-min Rain = 0
KJTS 141040Z 12006KT 22/15 A2993 RMK A01 T02200154  RH  069%=      5-min Rain = 0
KJTS 141045Z 13006KT 22/16 A2993 RMK A01 T02220155  RH  069%=      5-min Rain = 0
KJTS 141050Z 14007KT 23/16 A2993 RMK A01 T02250156  RH  068%=      5-min Rain = 0
KJTS 141055Z 14007KT 23/16 A2993 RMK A01 T02270156  RH  068%=      5-min Rain = 0
KJTS 141100Z 14007KT 23/16 A2993 RMK A01 T02270157  RH  068%=      5-min Rain = 0
KJTS 141105Z 14007KT 23/16 A2993 RMK A01 T02280158  RH  067%=      5-min Rain = 0
KJTS 141110Z 13006KT 23/16 A2993 RMK A01 T02280157  RH  067%=      5-min Rain = 0
KJTS 141115Z 14006KT 23/16 A2993 RMK A01 T02250156  RH  068%=      5-min Rain = 0
KJTS 141120Z 14005KT 22/16 A2993 RMK A01 T02230156  RH  069%=      5-min Rain = 0
KJTS 141125Z 14006KT 22/16 A2993 RMK A01 T02230156  RH  069%=      5-min Rain = 0
KJTS 141130Z 13007KT 22/16 A2993 RMK A01 T02230156  RH  069%=      5-min Rain = 0
KJTS 141135Z 13006KT 22/16 A2993 RMK A01 T02230156  RH  069%=      5-min Rain = 0
KJTS 141140Z 13006KT 22/16 A2993 RMK A01 T02230156  RH  069%=      5-min Rain = 0
KJTS 141145Z 14006KT 22/16 A2993 RMK A01 T02240156  RH  069%=      5-min Rain = 0
KJTS 141150Z 14007KT 23/16 A2993 RMK A01 T02250157  RH  068%=      5-min Rain = 0
KJTS 141155Z 15007KT 23/16 A2993 RMK A01 T02270158  RH  068%=      5-min Rain = 0
KJTS 141200Z 15008KT 23/16 A2994 RMK A01 T02280159  RH  068%=      5-min Rain = 0
KJTS 141205Z 14007KT 23/16 A2994 RMK A01 T02280159  RH  068%=      5-min Rain = 0
KJTS 141210Z 14007KT 23/16 A2994 RMK A01 T02270158  RH  068%=      5-min Rain = 0
KJTS 141215Z 14007KT 23/16 A2994 RMK A01 T02270159  RH  069%=      5-min Rain = 0
KJTS 141220Z 15007KT 23/16 A2994 RMK A01 T02270160  RH  069%=      5-min Rain = 0
KJTS 141225Z 15007KT 23/16 A2994 RMK A01 T02290161  RH  069%=      5-min Rain = 0
KJTS 141230Z 15007KT 23/16 A2994 RMK A01 T02310163  RH  068%=      5-min Rain = 0
KJTS 141235Z 16007KT 23/16 A2995 RMK A01 T02340164  RH  068%=      5-min Rain = 0
KJTS 141240Z 16007KT 24/17 A2995 RMK A01 T02360165  RH  068%=      5-min Rain = 0
KJTS 141245Z 16007KT 24/17 A2995 RMK A01 T02380166  RH  067%=      5-min Rain = 0
KJTS 141250Z 16007KT 24/17 A2995 RMK A01 T02410167  RH  067%=      5-min Rain = 0
KJTS 141255Z 16007KT 24/17 A2995 RMK A01 T02430168  RH  066%=      5-min Rain = 0
KJTS 141300Z 16008KT 25/17 A2995 RMK A01 T02460170  RH  066%=      5-min Rain = 0
KJTS 141305Z 17008KT 25/17 A2995 RMK A01 T02480171  RH  065%=      5-min Rain = 0
KJTS 141310Z 17008KT 25/17 A2996 RMK A01 T02470171  RH  066%=      5-min Rain = 0
KJTS 141315Z 17008KT 25/17 A2996 RMK A01 T02470172  RH  066%=      5-min Rain = 0
KJTS 141320Z 17009KT 25/17 A2995 RMK A01 T02510173  RH  065%=      5-min Rain = 0
KJTS 141325Z 17010KT 25/17 A2996 RMK A01 T02540174  RH  065%=      5-min Rain = 0
KJTS 141330Z 17011KT 25/17 A2995 RMK A01 T02540174  RH  064%=      5-min Rain = 0
KJTS 141335Z 17010KT 26/17 A2995 RMK A01 T02560174  RH  064%=      5-min Rain = 0
KJTS 141340Z 18009G14KT 26/18 A2996 RMK A01 T02570175  RH  064%=      5-min Rain = 0
KJTS 141345Z 18012KT 26/18 A2996 RMK A01 T02600177  RH  063%=      5-min Rain = 0
KJTS 141350Z 18013KT 26/18 A2995 RMK A01 T02610179  RH  064%=      5-min Rain = 0
KJTS 141355Z 19013G19KT 26/18 A2995 RMK A01 T02610179  RH  064%=      5-min Rain = 0
KJTS 141400Z 18014KT 26/18 A2995 RMK A01 T02600179  RH  064%=      5-min Rain = 0
KJTS 141405Z 19013G20KT 26/18 A2995 RMK A01 T02610179  RH  064%=      5-min Rain = 0
KJTS 141410Z 19012G17KT 26/18 A2995 RMK A01 T02630179  RH  063%=      5-min Rain = 0
KJTS 141415Z 19012G17KT 26/18 A2995 RMK A01 T02640179  RH  063%=      5-min Rain = 0
KJTS 141420Z 18012G17KT 26/18 A2995 RMK A01 T02640179  RH  063%=      5-min Rain = 0
KJTS 141425Z 19013KT 27/18 A2995 RMK A01 T02660179  RH  062%=      5-min Rain = 0
KJTS 141430Z 18014G19KT 26/18 A2996 RMK A01 T02640179  RH  063%=      5-min Rain = 0
KJTS 141435Z 19014G19KT 26/18 A2996 RMK A01 T02580178  RH  065%=      5-min Rain = 0
KJTS 141440Z 18014G19KT 26/18 A2996 RMK A01 T02590178  RH  065%=      5-min Rain = 0
KJTS 141445Z 19012G17KT 26/18 A2996 RMK A01 T02640179  RH  063%=      5-min Rain = 0
KJTS 141450Z 20013G18KT 27/18 A2996 RMK A01 T02660179  RH  062%=      5-min Rain = 0
KJTS 141455Z 20011KT 26/18 A2996 RMK A01 T02640179  RH  062%=      5-min Rain = 0
KJTS 141500Z 21012KT 27/18 A2996 RMK A01 T02650179  RH  062%=      5-min Rain = 0
KJTS 141505Z 19011G17KT 27/18 A2996 RMK A01 T02670179  RH  061%=      5-min Rain = 0
KJTS 141510Z 18009KT 27/18 A2996 RMK A01 T02720180  RH  060%=      5-min Rain = 0
KJTS 141515Z 19010G15KT 28/18 A2996 RMK A01 T02750179  RH  059%=      5-min Rain = 0
KJTS 141520Z 17010KT 28/18 A2995 RMK A01 T02760179  RH  058%=      5-min Rain = 0
KJTS 141525Z 17011KT 28/18 A2995 RMK A01 T02780179  RH  058%=      5-min Rain = 0
KJTS 141530Z 19009G17KT 28/18 A2995 RMK A01 T02810179  RH  057%=      5-min Rain = 0
KJTS 141535Z 17012KT 28/18 A2995 RMK A01 T02810179  RH  057%=      5-min Rain = 0
KJTS 141540Z 17011G17KT 29/18 A2995 RMK A01 T02860178  RH  055%=      5-min Rain = 0
KJTS 141545Z 18010KT 29/18 A2995 RMK A01 T02870177  RH  054%=      5-min Rain = 0
KJTS 141550Z 21010G17KT 29/18 A2995 RMK A01 T02900176  RH  053%=      5-min Rain = 0
KJTS 141555Z 20011KT 29/18 A2995 RMK A01 T02900175  RH  052%=      5-min Rain = 0
KJTS 141600Z 20011G17KT 29/18 A2995 RMK A01 T02900175  RH  052%=      5-min Rain = 0
KJTS 141605Z 18012G18KT 29/17 A2995 RMK A01 T02940173  RH  050%=      5-min Rain = 0
KJTS 141610Z 18012G17KT 30/17 A2995 RMK A01 T02980172  RH  049%=      5-min Rain = 0
KJTS 141615Z 20010G15KT 30/17 A2995 RMK A01 T02990170  RH  048%=      5-min Rain = 0
KJTS 141620Z 18010KT 30/17 A2995 RMK A01 T03020171  RH  048%=      5-min Rain = 0
KJTS 141625Z 21012G17KT 30/17 A2994 RMK A01 T03020169  RH  047%=      5-min Rain = 0
KJTS 141630Z 19009G14KT 31/17 A2994 RMK A01 T03060169  RH  046%=      5-min Rain = 0
KJTS 141635Z 19010G16KT 31/17 A2994 RMK A01 T03090170  RH  046%=      5-min Rain = 0
KJTS 141640Z 18012KT 31/17 A2994 RMK A01 T03070167  RH  045%=      5-min Rain = 0
KJTS 141645Z 17011G18KT 31/17 A2994 RMK A01 T03090168  RH  045%=      5-min Rain = 0
KJTS 141650Z 20011G20KT 31/17 A2994 RMK A01 T03080166  RH  045%=      5-min Rain = 0
KJTS 141655Z 20009G15KT 31/17 A2994 RMK A01 T03090165  RH  044%=      5-min Rain = 0
KJTS 141700Z 21010G16KT 32/16 A2993 RMK A01 T03150162  RH  042%=      5-min Rain = 0
KJTS 141705Z 19011G18KT 31/16 A2993 RMK A01 T03110163  RH  043%=      5-min Rain = 0
KJTS 141710Z 19013G19KT 31/17 A2993 RMK A01 T03120165  RH  043%=      5-min Rain = 0
KJTS 141715Z 21011G17KT 32/16 A2993 RMK A01 T03150163  RH  042%=      5-min Rain = 0
KJTS 141720Z 22007G13KT 32/16 A2993 RMK A01 T03170161  RH  041%=      5-min Rain = 0
KJTS 141725Z 19011G17KT 32/16 A2993 RMK A01 T03200161  RH  040%=      5-min Rain = 0
KJTS 141730Z 18011G16KT 32/16 A2992 RMK A01 T03180160  RH  041%=      5-min Rain = 0
KJTS 141735Z 19009KT 32/16 A2992 RMK A01 T03230159  RH  039%=      5-min Rain = 0
KJTS 141740Z 18009G16KT 33/16 A2992 RMK A01 T03250160  RH  039%=      5-min Rain = 0
KJTS 141745Z 18009KT 33/16 A2992 RMK A01 T03250162  RH  039%=      5-min Rain = 0
KJTS 141750Z 18010G17KT 33/16 A2992 RMK A01 T03260159  RH  038%=      5-min Rain = 0
KJTS 141755Z 16011G17KT 33/15 A2991 RMK A01 T03280154  RH  037%=      5-min Rain = 0
KJTS 141800Z 19009KT 33/15 A2991 RMK A01 T03320153  RH  036%=      5-min Rain = 0
KJTS 141805Z 16006KT 33/15 A2991 RMK A01 T03280152  RH  036%=      5-min Rain = 0
KJTS 141810Z 17012G17KT 33/15 A2991 RMK A01 T03330152  RH  035%=      5-min Rain = 0
KJTS 141815Z 19008G15KT 33/15 A2991 RMK A01 T03340150  RH  035%=      5-min Rain = 0
KJTS 141820Z 21008G13KT 34/15 A2991 RMK A01 T03350148  RH  034%=      5-min Rain = 0
KJTS 141825Z 16006G13KT 34/14 A299 RMK A01 T03370143  RH  033%=      5-min Rain = 0
KJTS 141830Z 18009G15KT 34/14 A299 RMK A01 T03360143  RH  033%=      5-min Rain = 0
KJTS 141835Z 21009KT 33/14 A299 RMK A01 T03340137  RH  032%=      5-min Rain = 0
KJTS 141840Z 22008G13KT 33/14 A299 RMK A01 T03330136  RH  032%=      5-min Rain = 0
KJTS 141845Z 19007KT 33/14 A2989 RMK A01 T03340139  RH  032%=      5-min Rain = 0
KJTS 141850Z 18009G15KT 34/15 A2989 RMK A01 T03350146  RH  034%=      5-min Rain = 0
KJTS 141855Z 17010G17KT 35/15 A2989 RMK A01 T03450146  RH  032%=      5-min Rain = 0
KJTS 141900Z 21010G15KT 34/14 A2989 RMK A01 T03430141  RH  031%=      5-min Rain = 0
KJTS 141905Z 20011G16KT 34/14 A2989 RMK A01 T03430142  RH  031%=      5-min Rain = 0
KJTS 141910Z 22006G11KT 34/14 A2989 RMK A01 T03400144  RH  032%=      5-min Rain = 0
KJTS 141915Z 24009G14KT 34/14 A2988 RMK A01 T03390144  RH  032%=      5-min Rain = 0
KJTS 141920Z 19009KT 34/15 A2988 RMK A01 T03390147  RH  033%=      5-min Rain = 0
KJTS 141925Z 19010G17KT 34/15 A2988 RMK A01 T03370149  RH  034%=      5-min Rain = 0
KJTS 141930Z 18010G19KT 34/15 A2988 RMK A01 T03390147  RH  033%=      5-min Rain = 0
KJTS 141935Z 17011G16KT 34/14 A2987 RMK A01 T03430144  RH  032%=      5-min Rain = 0
KJTS 141940Z 18008G13KT 34/14 A2987 RMK A01 T03370143  RH  033%=      5-min Rain = 0
KJTS 141945Z 18012G18KT 34/14 A2987 RMK A01 T03420143  RH  032%=      5-min Rain = 0
KJTS 141950Z 19011G17KT 35/14 A2987 RMK A01 T03490143  RH  030%=      5-min Rain = 0
KJTS 141955Z 19011G17KT 35/14 A2987 RMK A01 T03470143  RH  031%=      5-min Rain = 0
KJTS 142000Z 17011G18KT 35/14 A2987 RMK A01 T03480141  RH  030%=      5-min Rain = 0
KJTS 142005Z 17011G17KT 35/14 A2987 RMK A01 T03480136  RH  029%=      5-min Rain = 0
KJTS 142010Z 17008G13KT 35/13 A2986 RMK A01 T03500134  RH  029%=      5-min Rain = 0
KJTS 142015Z 15012G19KT 35/14 A2986 RMK A01 T03540135  RH  028%=      5-min Rain = 0
KJTS 142020Z 15015G20KT 35/15 A2985 RMK A01 T03480146  RH  031%=      5-min Rain = 0
KJTS 142025Z 14017G22KT 34/15 A2985 RMK A01 T03350152  RH  035%=      5-min Rain = 0
KJTS 142030Z 15015G21KT 32/13 A2985 RMK A01 T03230134  RH  033%=      5-min Rain = 0
KJTS 142035Z 14014G20KT 32/14 A2984 RMK A01 T03200137  RH  034%=      5-min Rain = 0
KJTS 142040Z 14013G18KT 32/14 A2984 RMK A01 T03190138  RH  035%=      5-min Rain = 0
KJTS 142045Z 13015G20KT 32/14 A2983 RMK A01 T03170135  RH  035%=      5-min Rain = 0
KJTS 142050Z 13015KT 32/13 A2982 RMK A01 T03170130  RH  033%=      5-min Rain = 0
KJTS 142055Z 14010KT 32/14 A2983 RMK A01 T03170140  RH  036%=      5-min Rain = 0
KJTS 142100Z 16013KT 31/16 A2982 RMK A01 T03130163  RH  043%=      5-min Rain = 0
KJTS 142105Z 16007G14KT 29/19 A2981 RMK A01 T02900192  RH  059%=      5-min Rain = 0.02
KJTS 142110Z 16004KT 27/20 A2981 RMK A01 T02740199  RH  068%=      5-min Rain = 0.01
KJTS 142115Z 23008KT 27/21 A2984 RMK A01 T02680206  RH  073%=      5-min Rain = 0.01
KJTS 142120Z 26014G21KT 26/19 A2985 RMK A01 T02600194  RH  071%=      5-min Rain = 0.01
KJTS 142125Z 25020G34KT 24/19 A2986 RMK A01 T02360188  RH  078%=      5-min Rain = 0.04
KJTS 142130Z 26013KT 22/18 A2987 RMK A01 T02170175  RH  081%=      5-min Rain = 0.12
KJTS 142135Z 24014G23KT 21/18 A2987 RMK A01 T02130176  RH  084%=      5-min Rain = 0.06
KJTS 142140Z 25014G22KT 22/16 A2985 RMK A01 T02200156  RH  070%=      5-min Rain = 0.05
KJTS 142145Z 26007G15KT 22/15 A2984 RMK A01 T02190151  RH  068%=      5-min Rain = 0.15
KJTS 142150Z 30004KT 22/17 A2983 RMK A01 T02230167  RH  074%=      5-min Rain = 0.02
KJTS 142155Z 31006KT 23/17 A2984 RMK A01 T02340169  RH  070%=      5-min Rain = 0
KJTS 142200Z 29008KT 23/16 A2986 RMK A01 T02290158  RH  067%=      5-min Rain = 0.02
KJTS 142205Z 27008KT 22/17 A2987 RMK A01 T02230166  RH  074%=      5-min Rain = 0.05
KJTS 142210Z 29004KT 22/17 A2986 RMK A01 T02170173  RH  080%=      5-min Rain = 0.02
KJTS 142215Z 31004KT 22/18 A2987 RMK A01 T02150178  RH  084%=      5-min Rain = 0.04
KJTS 142220Z 32006KT 22/18 A2987 RMK A01 T02150181  RH  085%=      5-min Rain = 0.06
KJTS 142225Z 00007KT 22/18 A2987 RMK A01 T02160183  RH  086%=      5-min Rain = 0.07
KJTS 142230Z 04008KT 22/19 A2986 RMK A01 T02220185  RH  084%=      5-min Rain = 0.01
KJTS 142235Z 03009KT 23/19 A2985 RMK A01 T02340192  RH  081%=      5-min Rain = 0
KJTS 142240Z 03008KT 25/19 A2984 RMK A01 T02460194  RH  077%=      5-min Rain = 0
KJTS 142245Z 04007KT 25/19 A2984 RMK A01 T02530188  RH  071%=      5-min Rain = 0
KJTS 142250Z 04007KT 26/19 A2983 RMK A01 T02580193  RH  071%=      5-min Rain = 0.01
KJTS 142255Z 07006KT 26/20 A2983 RMK A01 T02600203  RH  075%=      5-min Rain = 0
KJTS 142300Z 07006KT 26/20 A2983 RMK A01 T02610203  RH  075%=      5-min Rain = 0
KJTS 142305Z 09005KT 27/21 A2983 RMK A01 T02660205  RH  073%=      5-min Rain = 0
KJTS 142310Z 10006KT 27/21 A2983 RMK A01 T02710206  RH  072%=      5-min Rain = 0
KJTS 142315Z 10007KT 28/21 A2982 RMK A01 T02750205  RH  069%=      5-min Rain = 0
KJTS 142320Z 09009KT 28/20 A2982 RMK A01 T02810202  RH  066%=      5-min Rain = 0
KJTS 142325Z 10008KT 29/20 A2981 RMK A01 T02850201  RH  064%=      5-min Rain = 0
KJTS 142330Z 12009G14KT 29/19 A2981 RMK A01 T02890190  RH  058%=      5-min Rain = 0
KJTS 142335Z 13011G19KT 30/18 A2981 RMK A01 T02950178  RH  052%=      5-min Rain = 0
KJTS 142340Z 14011G16KT 30/18 A298 RMK A01 T02960176  RH  051%=      5-min Rain = 0
KJTS 142345Z 15012KT 30/18 A298 RMK A01 T02970176  RH  051%=      5-min Rain = 0
KJTS 142350Z 15013G20KT 30/18 A298 RMK A01 T02970176  RH  051%=      5-min Rain = 0
KJTS 142355Z 15015G20KT 30/18 A298 RMK A01 T02970176  RH  051%=      5-min Rain = 0
KJTS 150000Z 15015KT 30/17 A2979 RMK A01 T02950165  RH  048%=      5-min Rain = 0
KJTS 150005Z 13012G17KT 29/17 A2979 RMK A01 T02940165  RH  048%=      5-min Rain = 0
KJTS 150010Z 13012KT 29/16 A2979 RMK A01 T02930164  RH  048%=      5-min Rain = 0
KJTS 150015Z 14012KT 29/16 A2979 RMK A01 T02920158  RH  046%=      5-min Rain = 0
KJTS 150020Z 14009G14KT 29/16 A2979 RMK A01 T02940157  RH  046%=      5-min Rain = 0
KJTS 150025Z 14009KT 30/16 A2979 RMK A01 T02950158  RH  046%=      5-min Rain = 0
KJTS 150030Z 14012G17KT 29/14 A2979 RMK A01 T02940137  RH  040%=      5-min Rain = 0
KJTS 150035Z 14011KT 29/14 A2979 RMK A01 T02930138  RH  040%=      5-min Rain = 0
KJTS 150040Z 14011KT 29/14 A2979 RMK A01 T02920136  RH  040%=      5-min Rain = 0
KJTS 150045Z 14008KT 29/14 A298 RMK A01 T02910137  RH  041%=      5-min Rain = 0
KJTS 150050Z 13008KT 29/14 A2981 RMK A01 T02890140  RH  042%=      5-min Rain = 0
KJTS 150055Z 13007KT 28/15 A2981 RMK A01 T02840149  RH  046%=      5-min Rain = 0
KJTS 150100Z 14008KT 28/15 A2982 RMK A01 T02820149  RH  046%=      5-min Rain = 0
KJTS 150105Z 14007KT 28/15 A2982 RMK A01 T02820148  RH  046%=      5-min Rain = 0
KJTS 150110Z 13005KT 28/15 A2983 RMK A01 T02780154  RH  049%=      5-min Rain = 0
KJTS 150115Z 13006KT 28/15 A2983 RMK A01 T02750152  RH  049%=      5-min Rain = 0
KJTS 150120Z 11007KT 27/16 A2984 RMK A01 T02730156  RH  051%=      5-min Rain = 0
KJTS 150125Z 10008KT 27/16 A2984 RMK A01 T02690158  RH  053%=      5-min Rain = 0
KJTS 150130Z 09008KT 27/16 A2985 RMK A01 T02670159  RH  054%=      5-min Rain = 0
KJTS 150135Z 10007KT 27/16 A2985 RMK A01 T02670159  RH  054%=      5-min Rain = 0
KJTS 150140Z 13006KT 27/15 A2985 RMK A01 T02680152  RH  051%=      5-min Rain = 0
KJTS 150145Z 13004KT 27/15 A2986 RMK A01 T02720149  RH  049%=      5-min Rain = 0
KJTS 150150Z 03004G10KT 27/15 A2988 RMK A01 T02710154  RH  051%=      5-min Rain = 0
KJTS 150155Z 36013G20KT 27/16 A2989 RMK A01 T02690163  RH  055%=      5-min Rain = 0
KJTS 150200Z 00016G21KT 27/18 A2989 RMK A01 T02660175  RH  060%=      5-min Rain = 0
KJTS 150205Z 01018G24KT 26/16 A299 RMK A01 T02570163  RH  059%=      5-min Rain = 0
KJTS 150210Z 01013G18KT 25/15 A299 RMK A01 T02520150  RH  055%=      5-min Rain = 0
KJTS 150215Z 01011G18KT 25/14 A2991 RMK A01 T02470139  RH  053%=      5-min Rain = 0
KJTS 150220Z 02008G14KT 24/13 A2991 RMK A01 T02430134  RH  052%=      5-min Rain = 0
KJTS 150225Z 03008G14KT 24/13 A2992 RMK A01 T02410133  RH  053%=      5-min Rain = 0
KJTS 150230Z 04009G14KT 24/13 A2992 RMK A01 T02390132  RH  053%=      5-min Rain = 0
KJTS 150235Z 04010KT 24/13 A2992 RMK A01 T02370133  RH  054%=      5-min Rain = 0
KJTS 150240Z 05012KT 23/14 A2992 RMK A01 T02310140  RH  059%=      5-min Rain = 0
KJTS 150245Z 06011G16KT 23/14 A2992 RMK A01 T02280138  RH  059%=      5-min Rain = 0
KJTS 150250Z 06010KT 23/14 A2992 RMK A01 T02290139  RH  059%=      5-min Rain = 0.01
KJTS 150255Z 07010KT 23/14 A2992 RMK A01 T02280140  RH  060%=      5-min Rain = 0
KJTS 150300Z 06010KT 23/14 A2992 RMK A01 T02290139  RH  059%=      5-min Rain = 0
KJTS 150305Z 06009KT 23/14 A2992 RMK A01 T02300137  RH  058%=      5-min Rain = 0
KJTS 150310Z 06008KT 23/14 A2993 RMK A01 T02320136  RH  057%=      5-min Rain = 0
KJTS 150315Z 06006KT 23/13 A2994 RMK A01 T02340134  RH  056%=      5-min Rain = 0
KJTS 150320Z 05006KT 23/13 A2995 RMK A01 T02340133  RH  055%=      5-min Rain = 0
KJTS 150325Z 06009KT 23/14 A2994 RMK A01 T02320137  RH  058%=      5-min Rain = 0
KJTS 150330Z 09015KT 23/14 A2991 RMK A01 T02280138  RH  059%=      5-min Rain = 0
KJTS 150335Z 10017KT 23/14 A2989 RMK A01 T02280138  RH  059%=      5-min Rain = 0
KJTS 150340Z 10016KT 23/14 A2989 RMK A01 T02310136  RH  057%=      5-min Rain = 0
KJTS 150345Z 10015KT 23/14 A299 RMK A01 T02340139  RH  058%=      5-min Rain = 0
KJTS 150350Z 10014KT 24/14 A2991 RMK A01 T02350141  RH  058%=      5-min Rain = 0
KJTS 150355Z 09011KT 24/14 A2991 RMK A01 T02350142  RH  058%=      5-min Rain = 0
KJTS 150400Z 09010KT 24/14 A2992 RMK A01 T02350144  RH  059%=      5-min Rain = 0
KJTS 150405Z 10010KT 23/14 A2992 RMK A01 T02340143  RH  059%=      5-min Rain = 0
KJTS 150410Z 11010KT 24/14 A2992 RMK A01 T02350141  RH  058%=      5-min Rain = 0
KJTS 150415Z 12010KT 24/14 A2991 RMK A01 T02370139  RH  056%=      5-min Rain = 0
KJTS 150420Z 11010KT 24/14 A2991 RMK A01 T02360136  RH  056%=      5-min Rain = 0
KJTS 150425Z 12009KT 24/14 A299 RMK A01 T02360136  RH  056%=      5-min Rain = 0
KJTS 150430Z 13009KT 24/14 A299 RMK A01 T02350135  RH  055%=      5-min Rain = 0
KJTS 150435Z 13008KT 24/13 A299 RMK A01 T02360134  RH  055%=      5-min Rain = 0
KJTS 150440Z 14008KT 24/14 A299 RMK A01 T02350135  RH  056%=      5-min Rain = 0
KJTS 150445Z 13009KT 24/14 A299 RMK A01 T02350135  RH  056%=      5-min Rain = 0
KJTS 150450Z 15008KT 23/14 A2991 RMK A01 T02340135  RH  056%=      5-min Rain = 0
KJTS 150455Z 17007KT 23/14 A2991 RMK A01 T02320141  RH  059%=      5-min Rain = 0

Page generated in 0.01 seconds.